sensor_id;sensor_type;location;lat;lon;timestamp;pressure;altitude;pressure_sealevel;temperature;humidity
20696;BME280;10507;52.754;13.040;2023-02-19T00:01:44;100927.56;;;5.06;100.00
20696;BME280;10507;52.754;13.040;2023-02-19T00:04:14;100908.19;;;5.04;100.00
20696;BME280;10507;52.754;13.040;2023-02-19T00:06:43;100873.06;;;4.98;100.00
20696;BME280;10507;52.754;13.040;2023-02-19T00:09:12;100887.13;;;5.00;100.00
20696;BME280;10507;52.754;13.040;2023-02-19T00:11:42;100853.78;;;4.93;100.00
20696;BME280;10507;52.754;13.040;2023-02-19T00:14:14;100847.56;;;4.94;100.00
20696;BME280;10507;52.754;13.040;2023-02-19T00:16:42;100808.13;;;4.84;100.00
20696;BME280;10507;52.754;13.040;2023-02-19T00:19:13;100824.00;;;4.84;100.00
20696;BME280;10507;52.754;13.040;2023-02-19T00:21:41;100804.81;;;4.75;100.00
20696;BME280;10507;52.754;13.040;2023-02-19T00:24:10;100828.66;;;4.74;100.00
20696;BME280;10507;52.754;13.040;2023-02-19T00:26:40;100835.75;;;4.72;100.00
20696;BME280;10507;52.754;13.040;2023-02-19T00:29:12;100831.50;;;4.65;100.00
20696;BME280;10507;52.754;13.040;2023-02-19T00:31:40;100829.00;;;4.58;100.00
20696;BME280;10507;52.754;13.040;2023-02-19T00:34:09;100792.28;;;4.46;100.00
20696;BME280;10507;52.754;13.040;2023-02-19T00:36:38;100826.63;;;4.46;100.00
20696;BME280;10507;52.754;13.040;2023-02-19T00:39:09;100814.44;;;4.39;100.00
20696;BME280;10507;52.754;13.040;2023-02-19T00:41:38;100812.72;;;4.36;100.00
20696;BME280;10507;52.754;13.040;2023-02-19T00:44:07;100817.13;;;4.37;100.00
20696;BME280;10507;52.754;13.040;2023-02-19T00:46:37;100853.13;;;4.43;100.00
20696;BME280;10507;52.754;13.040;2023-02-19T00:49:07;100830.28;;;4.39;100.00
20696;BME280;10507;52.754;13.040;2023-02-19T00:51:36;100805.75;;;4.34;100.00
20696;BME280;10507;52.754;13.040;2023-02-19T00:54:04;100798.66;;;4.36;100.00
20696;BME280;10507;52.754;13.040;2023-02-19T00:56:32;100820.63;;;4.38;100.00
20696;BME280;10507;52.754;13.040;2023-02-19T00:59:00;100835.56;;;4.39;100.00
20696;BME280;10507;52.754;13.040;2023-02-19T01:01:29;100826.81;;;4.37;100.00
20696;BME280;10507;52.754;13.040;2023-02-19T01:03:58;100801.41;;;4.31;100.00
20696;BME280;10507;52.754;13.040;2023-02-19T01:06:26;100828.69;;;4.32;100.00
20696;BME280;10507;52.754;13.040;2023-02-19T01:08:55;100846.22;;;4.36;100.00
20696;BME280;10507;52.754;13.040;2023-02-19T01:11:23;100825.16;;;4.33;100.00
20696;BME280;10507;52.754;13.040;2023-02-19T01:13:56;100824.22;;;4.35;100.00
20696;BME280;10507;52.754;13.040;2023-02-19T01:16:23;100791.75;;;4.29;100.00
20696;BME280;10507;52.754;13.040;2023-02-19T01:18:53;100785.84;;;4.18;100.00
20696;BME280;10507;52.754;13.040;2023-02-19T01:21:25;100822.75;;;4.21;100.00
20696;BME280;10507;52.754;13.040;2023-02-19T01:23:54;100822.75;;;4.22;100.00
20696;BME280;10507;52.754;13.040;2023-02-19T01:26:24;100814.81;;;4.22;100.00
20696;BME280;10507;52.754;13.040;2023-02-19T01:28:53;100822.75;;;4.21;100.00
20696;BME280;10507;52.754;13.040;2023-02-19T01:31:22;100804.38;;;4.14;100.00
20696;BME280;10507;52.754;13.040;2023-02-19T01:33:52;100784.31;;;4.06;100.00
20696;BME280;10507;52.754;13.040;2023-02-19T01:36:20;100796.66;;;4.05;100.00
20696;BME280;10507;52.754;13.040;2023-02-19T01:38:50;100814.25;;;4.06;100.00
20696;BME280;10507;52.754;13.040;2023-02-19T01:41:21;100804.66;;;4.02;100.00
20696;BME280;10507;52.754;13.040;2023-02-19T01:43:55;100797.72;;;3.96;100.00
20696;BME280;10507;52.754;13.040;2023-02-19T01:46:24;100789.97;;;3.89;100.00
20696;BME280;10507;52.754;13.040;2023-02-19T01:48:54;100801.38;;;3.91;100.00
20696;BME280;10507;52.754;13.040;2023-02-19T01:51:23;100806.75;;;3.85;100.00
20696;BME280;10507;52.754;13.040;2023-02-19T01:53:55;100800.63;;;3.84;100.00
20696;BME280;10507;52.754;13.040;2023-02-19T01:56:26;100824.38;;;3.86;100.00
20696;BME280;10507;52.754;13.040;2023-02-19T01:58:56;100808.59;;;3.81;100.00
20696;BME280;10507;52.754;13.040;2023-02-19T02:01:24;100817.41;;;3.82;100.00
20696;BME280;10507;52.754;13.040;2023-02-19T02:03:52;100806.94;;;3.75;100.00
20696;BME280;10507;52.754;13.040;2023-02-19T02:06:22;100804.38;;;3.71;100.00
20696;BME280;10507;52.754;13.040;2023-02-19T02:08:53;100854.47;;;3.75;100.00
20696;BME280;10507;52.754;13.040;2023-02-19T02:11:42;100892.13;;;3.85;100.00
20696;BME280;10507;52.754;13.040;2023-02-19T02:14:11;100886.84;;;3.87;100.00
20696;BME280;10507;52.754;13.040;2023-02-19T02:16:46;100859.66;;;3.82;100.00
20696;BME280;10507;52.754;13.040;2023-02-19T02:19:29;100909.63;;;3.92;100.00
20696;BME280;10507;52.754;13.040;2023-02-19T02:22:04;100897.25;;;3.94;100.00
20696;BME280;10507;52.754;13.040;2023-02-19T02:25:01;100856.88;;;3.88;100.00
20696;BME280;10507;52.754;13.040;2023-02-19T02:27:42;100877.88;;;3.94;100.00
20696;BME280;10507;52.754;13.040;2023-02-19T02:30:29;100831.38;;;3.85;100.00
20696;BME280;10507;52.754;13.040;2023-02-19T02:33:05;100858.63;;;3.89;100.00
20696;BME280;10507;52.754;13.040;2023-02-19T02:35:39;100843.72;;;3.85;100.00
20696;BME280;10507;52.754;13.040;2023-02-19T02:38:10;100841.25;;;3.77;100.00
20696;BME280;10507;52.754;13.040;2023-02-19T02:40:41;100843.91;;;3.75;100.00
20696;BME280;10507;52.754;13.040;2023-02-19T02:43:09;100856.19;;;3.77;100.00
20696;BME280;10507;52.754;13.040;2023-02-19T02:45:39;100914.09;;;3.89;100.00
20696;BME280;10507;52.754;13.040;2023-02-19T02:48:15;100881.56;;;3.85;100.00
20696;BME280;10507;52.754;13.040;2023-02-19T02:50:46;100873.72;;;3.82;100.00
20696;BME280;10507;52.754;13.040;2023-02-19T02:53:20;100916.72;;;3.90;100.00
20696;BME280;10507;52.754;13.040;2023-02-19T02:56:08;100907.94;;;3.88;100.00
20696;BME280;10507;52.754;13.040;2023-02-19T02:58:37;100935.91;;;3.99;100.00
20696;BME280;10507;52.754;13.040;2023-02-19T03:01:10;100947.31;;;4.02;100.00
20696;BME280;10507;52.754;13.040;2023-02-19T03:03:59;100920.91;;;4.01;100.00
20696;BME280;10507;52.754;13.040;2023-02-19T03:06:30;100866.63;;;3.86;100.00
20696;BME280;10507;52.754;13.040;2023-02-19T03:09:06;100881.53;;;3.88;100.00
20696;BME280;10507;52.754;13.040;2023-02-19T03:11:38;100913.22;;;3.88;100.00
20696;BME280;10507;52.754;13.040;2023-02-19T03:14:30;100942.22;;;3.91;100.00
20696;BME280;10507;52.754;13.040;2023-02-19T03:17:21;100901.00;;;3.83;100.00
20696;BME280;10507;52.754;13.040;2023-02-19T03:20:12;100907.97;;;3.85;100.00
20696;BME280;10507;52.754;13.040;2023-02-19T03:22:43;100890.47;;;3.81;100.00
20696;BME280;10507;52.754;13.040;2023-02-19T03:25:17;100851.00;;;3.73;100.00
20696;BME280;10507;52.754;13.040;2023-02-19T03:28:07;100859.81;;;3.72;100.00
20696;BME280;10507;52.754;13.040;2023-02-19T03:30:39;100831.75;;;3.65;100.00
20696;BME280;10507;52.754;13.040;2023-02-19T03:33:13;100773.94;;;3.53;100.00
20696;BME280;10507;52.754;13.040;2023-02-19T03:35:45;100783.56;;;3.56;100.00
20696;BME280;10507;52.754;13.040;2023-02-19T03:38:16;100772.19;;;3.52;100.00
20696;BME280;10507;52.754;13.040;2023-02-19T03:40:52;100733.75;;;3.39;100.00
20696;BME280;10507;52.754;13.040;2023-02-19T03:43:25;100730.19;;;3.40;100.00
20696;BME280;10507;52.754;13.040;2023-02-19T03:46:05;100744.25;;;3.42;100.00
20696;BME280;10507;52.754;13.040;2023-02-19T03:48:37;100753.94;;;3.40;100.00
20696;BME280;10507;52.754;13.040;2023-02-19T03:51:19;100745.16;;;3.39;100.00
20696;BME280;10507;52.754;13.040;2023-02-19T03:53:57;100789.03;;;3.45;100.00
20696;BME280;10507;52.754;13.040;2023-02-19T03:56:34;100752.25;;;3.36;100.00
20696;BME280;10507;52.754;13.040;2023-02-19T03:59:10;100720.69;;;3.29;100.00
20696;BME280;10507;52.754;13.040;2023-02-19T04:01:43;100701.53;;;3.21;100.00
20696;BME280;10507;52.754;13.040;2023-02-19T04:04:17;100720.75;;;3.28;100.00
20696;BME280;10507;52.754;13.040;2023-02-19T04:06:51;100715.56;;;3.23;100.00
20696;BME280;10507;52.754;13.040;2023-02-19T04:09:22;100683.25;;;3.12;100.00
20696;BME280;10507;52.754;13.040;2023-02-19T04:11:52;100734.06;;;3.20;100.00
20696;BME280;10507;52.754;13.040;2023-02-19T04:14:24;100711.41;;;3.10;100.00
20696;BME280;10507;52.754;13.040;2023-02-19T04:16:58;100681.63;;;3.03;100.00
20696;BME280;10507;52.754;13.040;2023-02-19T04:19:32;100672.06;;;2.98;100.00
20696;BME280;10507;52.754;13.040;2023-02-19T04:22:03;100687.00;;;2.99;100.00
20696;BME280;10507;52.754;13.040;2023-02-19T04:24:35;100692.31;;;2.96;100.00
20696;BME280;10507;52.754;13.040;2023-02-19T04:27:05;100681.91;;;2.89;100.00
20696;BME280;10507;52.754;13.040;2023-02-19T04:29:33;100705.56;;;2.92;100.00
20696;BME280;10507;52.754;13.040;2023-02-19T04:32:04;100712.66;;;2.89;100.00
20696;BME280;10507;52.754;13.040;2023-02-19T04:34:33;100724.97;;;2.88;100.00
20696;BME280;10507;52.754;13.040;2023-02-19T04:37:01;100741.72;;;2.84;100.00
20696;BME280;10507;52.754;13.040;2023-02-19T04:39:29;100758.41;;;2.86;100.00
20696;BME280;10507;52.754;13.040;2023-02-19T04:41:57;100757.59;;;2.83;100.00
20696;BME280;10507;52.754;13.040;2023-02-19T04:44:25;100798.81;;;2.87;100.00
20696;BME280;10507;52.754;13.040;2023-02-19T04:46:53;100820.81;;;2.87;100.00
20696;BME280;10507;52.754;13.040;2023-02-19T04:49:21;100809.44;;;2.84;100.00
20696;BME280;10507;52.754;13.040;2023-02-19T04:51:50;100807.72;;;2.80;100.00
20696;BME280;10507;52.754;13.040;2023-02-19T04:54:17;100823.53;;;2.83;100.00
20696;BME280;10507;52.754;13.040;2023-02-19T04:56:45;100853.31;;;2.86;100.00
20696;BME280;10507;52.754;13.040;2023-02-19T04:59:13;100894.56;;;2.92;100.00
20696;BME280;10507;52.754;13.040;2023-02-19T05:01:41;100898.06;;;2.92;100.00
20696;BME280;10507;52.754;13.040;2023-02-19T05:04:09;100901.63;;;2.91;100.00
20696;BME280;10507;52.754;13.040;2023-02-19T05:06:37;100890.22;;;2.88;100.00
20696;BME280;10507;52.754;13.040;2023-02-19T05:09:07;100898.97;;;2.91;100.00
20696;BME280;10507;52.754;13.040;2023-02-19T05:11:35;100894.63;;;2.87;100.00
20696;BME280;10507;52.754;13.040;2023-02-19T05:14:03;100951.53;;;3.02;100.00
20696;BME280;10507;52.754;13.040;2023-02-19T05:16:31;100949.75;;;3.04;100.00
20696;BME280;10507;52.754;13.040;2023-02-19T05:18:59;100926.94;;;3.02;100.00
20696;BME280;10507;52.754;13.040;2023-02-19T05:21:27;100950.59;;;3.08;100.00
20696;BME280;10507;52.754;13.040;2023-02-19T05:23:55;100959.38;;;3.10;100.00
20696;BME280;10507;52.754;13.040;2023-02-19T05:26:24;100967.22;;;3.13;100.00
20696;BME280;10507;52.754;13.040;2023-02-19T05:28:52;100937.41;;;3.09;100.00
20696;BME280;10507;52.754;13.040;2023-02-19T05:31:20;100945.28;;;3.11;100.00
20696;BME280;10507;52.754;13.040;2023-02-19T05:33:48;100895.28;;;3.03;100.00
20696;BME280;10507;52.754;13.040;2023-02-19T05:36:19;100879.47;;;3.03;100.00
20696;BME280;10507;52.754;13.040;2023-02-19T05:38:51;100891.72;;;3.07;100.00
20696;BME280;10507;52.754;13.040;2023-02-19T05:41:21;100868.91;;;3.02;100.00
20696;BME280;10507;52.754;13.040;2023-02-19T05:43:51;100860.16;;;3.01;100.00
20696;BME280;10507;52.754;13.040;2023-02-19T05:46:21;100873.34;;;3.01;100.00
20696;BME280;10507;52.754;13.040;2023-02-19T05:48:52;100895.22;;;3.06;100.00
20696;BME280;10507;52.754;13.040;2023-02-19T05:51:21;100911.06;;;3.05;100.00
20696;BME280;10507;52.754;13.040;2023-02-19T05:53:50;100890.94;;;3.01;100.00
20696;BME280;10507;52.754;13.040;2023-02-19T05:56:29;100929.53;;;3.05;100.00
20696;BME280;10507;52.754;13.040;2023-02-19T05:58:59;100862.94;;;2.90;100.00
20696;BME280;10507;52.754;13.040;2023-02-19T06:01:30;100887.59;;;2.86;100.00
20696;BME280;10507;52.754;13.040;2023-02-19T06:03:58;100900.84;;;2.83;100.00
20696;BME280;10507;52.754;13.040;2023-02-19T06:06:26;100932.44;;;2.86;100.00
20696;BME280;10507;52.754;13.040;2023-02-19T06:08:54;100968.38;;;2.94;100.00
20696;BME280;10507;52.754;13.040;2023-02-19T06:11:23;100950.03;;;2.84;100.00
20696;BME280;10507;52.754;13.040;2023-02-19T06:13:51;100980.75;;;2.88;100.00
20696;BME280;10507;52.754;13.040;2023-02-19T06:16:20;100974.69;;;2.83;100.00
20696;BME280;10507;52.754;13.040;2023-02-19T06:18:48;100994.84;;;2.87;100.00
20696;BME280;10507;52.754;13.040;2023-02-19T06:21:17;101023.75;;;2.94;100.00
20696;BME280;10507;52.754;13.040;2023-02-19T06:23:45;100993.06;;;2.89;100.00
20696;BME280;10507;52.754;13.040;2023-02-19T06:26:15;101028.13;;;2.96;100.00
20696;BME280;10507;52.754;13.040;2023-02-19T06:28:44;100980.81;;;2.85;100.00
20696;BME280;10507;52.754;13.040;2023-02-19T06:31:13;100984.31;;;2.86;100.00
20696;BME280;10507;52.754;13.040;2023-02-19T06:33:42;100994.91;;;2.83;100.00
20696;BME280;10507;52.754;13.040;2023-02-19T06:36:13;101058.88;;;2.97;100.00
20696;BME280;10507;52.754;13.040;2023-02-19T06:38:41;101018.53;;;2.92;100.00
20696;BME280;10507;52.754;13.040;2023-02-19T06:41:10;100993.94;;;2.88;100.00
20696;BME280;10507;52.754;13.040;2023-02-19T06:43:39;101000.13;;;2.87;100.00
20696;BME280;10507;52.754;13.040;2023-02-19T06:46:07;101039.56;;;2.97;100.00
20696;BME280;10507;52.754;13.040;2023-02-19T06:48:35;101018.41;;;2.98;100.00
20696;BME280;10507;52.754;13.040;2023-02-19T06:51:06;101002.63;;;2.97;100.00
20696;BME280;10507;52.754;13.040;2023-02-19T06:53:34;101037.66;;;3.08;100.00
20696;BME280;10507;52.754;13.040;2023-02-19T06:56:03;100990.25;;;3.02;100.00
20696;BME280;10507;52.754;13.040;2023-02-19T06:58:32;100991.09;;;3.04;100.00
20696;BME280;10507;52.754;13.040;2023-02-19T07:01:00;101025.28;;;3.13;100.00
20696;BME280;10507;52.754;13.040;2023-02-19T07:03:28;101013.78;;;3.16;100.00
20696;BME280;10507;52.754;13.040;2023-02-19T07:05:58;101021.59;;;3.25;100.00
20696;BME280;10507;52.754;13.040;2023-02-19T07:08:27;100993.53;;;3.21;100.00
20696;BME280;10507;52.754;13.040;2023-02-19T07:10:56;100975.09;;;3.16;100.00
20696;BME280;10507;52.754;13.040;2023-02-19T07:13:25;101032.06;;;3.31;100.00
20696;BME280;10507;52.754;13.040;2023-02-19T07:15:57;101046.91;;;3.40;100.00
20696;BME280;10507;52.754;13.040;2023-02-19T07:18:25;101020.50;;;3.41;100.00
20696;BME280;10507;52.754;13.040;2023-02-19T07:20:53;101020.44;;;3.43;100.00
20696;BME280;10507;52.754;13.040;2023-02-19T07:23:20;100995.03;;;3.37;100.00
20696;BME280;10507;52.754;13.040;2023-02-19T07:25:49;101013.44;;;3.42;100.00
20696;BME280;10507;52.754;13.040;2023-02-19T07:28:17;101025.66;;;3.49;100.00
20696;BME280;10507;52.754;13.040;2023-02-19T07:30:45;100987.03;;;3.43;100.00
20696;BME280;10507;52.754;13.040;2023-02-19T07:33:13;101025.56;;;3.55;100.00
20696;BME280;10507;52.754;13.040;2023-02-19T07:35:44;101000.94;;;3.53;100.00
20696;BME280;10507;52.754;13.040;2023-02-19T07:38:14;100997.41;;;3.54;100.00
20696;BME280;10507;52.754;13.040;2023-02-19T07:40:50;101049.03;;;3.73;100.00
20696;BME280;10507;52.754;13.040;2023-02-19T07:43:18;101040.09;;;3.82;100.00
20696;BME280;10507;52.754;13.040;2023-02-19T07:45:46;100988.22;;;3.80;100.00
20696;BME280;10507;52.754;13.040;2023-02-19T07:48:15;101023.19;;;3.94;100.00
20696;BME280;10507;52.754;13.040;2023-02-19T07:50:49;100998.38;;;4.01;100.00
20696;BME280;10507;52.754;13.040;2023-02-19T07:53:17;101035.13;;;4.16;100.00
20696;BME280;10507;52.754;13.040;2023-02-19T07:55:45;100981.41;;;4.14;100.00
20696;BME280;10507;52.754;13.040;2023-02-19T07:58:14;100955.06;;;4.11;100.00
20696;BME280;10507;52.754;13.040;2023-02-19T08:00:44;100938.38;;;4.08;100.00
20696;BME280;10507;52.754;13.040;2023-02-19T08:03:11;100921.75;;;4.04;100.00
20696;BME280;10507;52.754;13.040;2023-02-19T08:05:40;100948.91;;;4.11;100.00
20696;BME280;10507;52.754;13.040;2023-02-19T08:08:10;100965.56;;;4.14;100.00
20696;BME280;10507;52.754;13.040;2023-02-19T08:10:39;100991.72;;;4.30;100.00
20696;BME280;10507;52.754;13.040;2023-02-19T08:13:27;100922.44;;;4.14;100.00
20696;BME280;10507;52.754;13.040;2023-02-19T08:16:08;100946.00;;;4.25;100.00
20696;BME280;10507;52.754;13.040;2023-02-19T08:18:47;100979.16;;;4.41;100.00
20696;BME280;10507;52.754;13.040;2023-02-19T08:21:15;100986.06;;;4.48;100.00
20696;BME280;10507;52.754;13.040;2023-02-19T08:23:45;100983.38;;;4.53;100.00
20696;BME280;10507;52.754;13.040;2023-02-19T08:26:17;100903.22;;;4.49;100.00
20696;BME280;10507;52.754;13.040;2023-02-19T08:28:47;100964.53;;;4.68;100.00
20696;BME280;10507;52.754;13.040;2023-02-19T08:31:15;100928.31;;;4.72;100.00
20696;BME280;10507;52.754;13.040;2023-02-19T08:33:43;100936.03;;;4.81;100.00
20696;BME280;10507;52.754;13.040;2023-02-19T08:36:10;100938.59;;;4.84;100.00
20696;BME280;10507;52.754;13.040;2023-02-19T08:38:38;100843.59;;;4.75;100.00
20696;BME280;10507;52.754;13.040;2023-02-19T08:41:08;100786.69;;;4.58;100.00
20696;BME280;10507;52.754;13.040;2023-02-19T08:43:37;100910.72;;;4.71;100.00
20696;BME280;10507;52.754;13.040;2023-02-19T08:46:08;100943.97;;;4.81;100.00
20696;BME280;10507;52.754;13.040;2023-02-19T08:48:37;100805.91;;;4.67;100.00
20696;BME280;10507;52.754;13.040;2023-02-19T08:51:06;100926.31;;;4.82;100.00
20696;BME280;10507;52.754;13.040;2023-02-19T08:53:36;100902.31;;;4.91;100.00
20696;BME280;10507;52.754;13.040;2023-02-19T08:56:05;100895.06;;;5.00;100.00
20696;BME280;10507;52.754;13.040;2023-02-19T08:58:34;100850.44;;;4.84;100.00
20696;BME280;10507;52.754;13.040;2023-02-19T09:01:05;100886.38;;;4.94;100.00
20696;BME280;10507;52.754;13.040;2023-02-19T09:03:36;100785.34;;;4.78;100.00
20696;BME280;10507;52.754;13.040;2023-02-19T09:06:04;100880.16;;;4.96;100.00
20696;BME280;10507;52.754;13.040;2023-02-19T09:08:32;100897.63;;;5.04;100.00
20696;BME280;10507;52.754;13.040;2023-02-19T09:11:02;100766.47;;;4.93;99.64
20696;BME280;10507;52.754;13.040;2023-02-19T09:13:30;100837.69;;;5.03;99.95
20696;BME280;10507;52.754;13.040;2023-02-19T09:15:58;100877.09;;;5.13;100.00
20696;BME280;10507;52.754;13.040;2023-02-19T09:18:26;100714.59;;;4.86;99.45
20696;BME280;10507;52.754;13.040;2023-02-19T09:20:58;100781.28;;;5.00;99.49
20696;BME280;10507;52.754;13.040;2023-02-19T09:23:26;100775.44;;;4.86;99.59
20696;BME280;10507;52.754;13.040;2023-02-19T09:25:57;100685.84;;;4.72;99.28
20696;BME280;10507;52.754;13.040;2023-02-19T09:28:26;100771.22;;;4.79;99.88
20696;BME280;10507;52.754;13.040;2023-02-19T09:30:54;100759.75;;;4.78;99.49
20696;BME280;10507;52.754;13.040;2023-02-19T09:33:22;100806.28;;;4.87;99.62
20696;BME280;10507;52.754;13.040;2023-02-19T09:35:50;100790.19;;;4.96;99.07
20696;BME280;10507;52.754;13.040;2023-02-19T09:38:19;100747.22;;;4.87;98.68
20696;BME280;10507;52.754;13.040;2023-02-19T09:40:47;100681.28;;;4.79;98.25
20696;BME280;10507;52.754;13.040;2023-02-19T09:43:17;100695.34;;;4.81;98.36
20696;BME280;10507;52.754;13.040;2023-02-19T09:45:46;100677.81;;;4.77;98.36
20696;BME280;10507;52.754;13.040;2023-02-19T09:48:15;100806.97;;;4.95;99.04
20696;BME280;10507;52.754;13.040;2023-02-19T09:50:44;100741.66;;;4.97;98.23
20696;BME280;10507;52.754;13.040;2023-02-19T09:53:17;100660.44;;;4.99;96.56
20696;BME280;10507;52.754;13.040;2023-02-19T09:55:48;100729.00;;;5.09;97.19
20696;BME280;10507;52.754;13.040;2023-02-19T09:58:21;100778.97;;;5.23;96.92
20696;BME280;10507;52.754;13.040;2023-02-19T10:00:53;100786.56;;;5.35;96.67
20696;BME280;10507;52.754;13.040;2023-02-19T10:03:24;100708.91;;;5.36;95.90
20696;BME280;10507;52.754;13.040;2023-02-19T10:05:57;100649.81;;;5.34;94.88
20696;BME280;10507;52.754;13.040;2023-02-19T10:08:31;100566.19;;;5.27;94.84
20696;BME280;10507;52.754;13.040;2023-02-19T10:11:02;100583.03;;;5.24;94.84
20696;BME280;10507;52.754;13.040;2023-02-19T10:13:33;100646.22;;;5.36;94.55
20696;BME280;10507;52.754;13.040;2023-02-19T10:16:04;100572.81;;;5.41;93.19
20696;BME280;10507;52.754;13.040;2023-02-19T10:18:37;100514.56;;;5.41;92.58
20696;BME280;10507;52.754;13.040;2023-02-19T10:21:07;100496.91;;;5.42;92.28
20696;BME280;10507;52.754;13.040;2023-02-19T10:23:38;100523.16;;;5.50;91.56
20696;BME280;10507;52.754;13.040;2023-02-19T10:26:09;100425.25;;;5.47;90.34
20696;BME280;10507;52.754;13.040;2023-02-19T10:28:37;100382.81;;;5.50;89.88
20696;BME280;10507;52.754;13.040;2023-02-19T10:31:13;100402.69;;;5.63;89.24
20696;BME280;10507;52.754;13.040;2023-02-19T10:33:49;100449.72;;;5.81;89.05
20696;BME280;10507;52.754;13.040;2023-02-19T10:36:24;100359.69;;;5.80;88.21
20696;BME280;10507;52.754;13.040;2023-02-19T10:38:57;100316.66;;;5.73;88.41
20696;BME280;10507;52.754;13.040;2023-02-19T10:41:27;100383.50;;;5.81;88.22
20696;BME280;10507;52.754;13.040;2023-02-19T10:44:00;100286.63;;;5.74;87.92
20696;BME280;10507;52.754;13.040;2023-02-19T10:46:31;100400.59;;;5.98;87.81
20696;BME280;10507;52.754;13.040;2023-02-19T10:49:01;100248.03;;;5.91;87.00
20696;BME280;10507;52.754;13.040;2023-02-19T10:51:33;100277.00;;;5.97;86.99
20696;BME280;10507;52.754;13.040;2023-02-19T10:54:04;100494.50;;;6.16;88.33
20696;BME280;10507;52.754;13.040;2023-02-19T10:56:34;100552.94;;;6.39;87.56
20696;BME280;10507;52.754;13.040;2023-02-19T10:59:18;100274.69;;;6.11;86.53
20696;BME280;10507;52.754;13.040;2023-02-19T11:01:56;100284.38;;;6.12;86.37
20696;BME280;10507;52.754;13.040;2023-02-19T11:04:26;100433.63;;;6.39;86.01
20696;BME280;10507;52.754;13.040;2023-02-19T11:06:54;100242.06;;;6.33;84.74
20696;BME280;10507;52.754;13.040;2023-02-19T11:09:26;100257.53;;;6.21;85.58
20696;BME280;10507;52.754;13.040;2023-02-19T11:11:57;100152.78;;;6.11;84.67
20696;BME280;10507;52.754;13.040;2023-02-19T11:14:25;100172.13;;;6.13;85.06
20696;BME280;10507;52.754;13.040;2023-02-19T11:16:56;100166.59;;;6.19;85.00
20696;BME280;10507;52.754;13.040;2023-02-19T11:19:32;100169.06;;;6.24;84.31
20696;BME280;10507;52.754;13.040;2023-02-19T11:22:18;100276.28;;;6.39;85.07
20696;BME280;10507;52.754;13.040;2023-02-19T11:24:49;100067.34;;;6.27;83.16
20696;BME280;10507;52.754;13.040;2023-02-19T11:27:24;100119.38;;;6.29;83.76
20696;BME280;10507;52.754;13.040;2023-02-19T11:29:52;100144.03;;;6.31;83.61
20696;BME280;10507;52.754;13.040;2023-02-19T11:32:24;100117.06;;;6.42;82.59
20696;BME280;10507;52.754;13.040;2023-02-19T11:35:13;100205.09;;;6.72;81.98
20696;BME280;10507;52.754;13.040;2023-02-19T11:37:54;100209.84;;;6.86;81.38
20696;BME280;10507;52.754;13.040;2023-02-19T11:40:29;100166.88;;;6.98;81.66
20696;BME280;10507;52.754;13.040;2023-02-19T11:43:08;100078.56;;;7.15;79.75
20696;BME280;10507;52.754;13.040;2023-02-19T11:45:44;99733.09;;;6.86;78.04
20696;BME280;10507;52.754;13.040;2023-02-19T11:48:34;99914.97;;;6.94;78.93
20696;BME280;10507;52.754;13.040;2023-02-19T11:51:17;99948.25;;;7.01;79.29
20696;BME280;10507;52.754;13.040;2023-02-19T11:53:53;99767.09;;;6.97;78.51
20696;BME280;10507;52.754;13.040;2023-02-19T11:56:33;99750.13;;;6.82;78.94
20696;BME280;10507;52.754;13.040;2023-02-19T11:59:09;100162.28;;;7.22;80.96
20696;BME280;10507;52.754;13.040;2023-02-19T12:01:55;100106.25;;;7.28;80.01
20696;BME280;10507;52.754;13.040;2023-02-19T12:04:55;100078.72;;;7.50;79.49
20696;BME280;10507;52.754;13.040;2023-02-19T12:07:51;99889.63;;;7.42;78.08
20696;BME280;10507;52.754;13.040;2023-02-19T12:10:27;99598.06;;;7.15;76.46
20696;BME280;10507;52.754;13.040;2023-02-19T12:13:05;99866.53;;;7.44;77.47
20696;BME280;10507;52.754;13.040;2023-02-19T12:16:04;99973.75;;;7.60;77.32
20696;BME280;10507;52.754;13.040;2023-02-19T12:21:49;99850.34;;;7.48;77.19
20696;BME280;10507;52.754;13.040;2023-02-19T12:27:43;99511.19;;;7.01;76.22
20696;BME280;10507;52.754;13.040;2023-02-19T12:30:28;99536.22;;;6.97;75.84
20696;BME280;10507;52.754;13.040;2023-02-19T12:33:18;99482.66;;;6.73;76.38
20696;BME280;10507;52.754;13.040;2023-02-19T12:35:59;99355.28;;;6.41;76.52
20696;BME280;10507;52.754;13.040;2023-02-19T12:38:35;99403.66;;;6.29;76.68
20696;BME280;10507;52.754;13.040;2023-02-19T12:41:17;99550.94;;;6.35;78.24
20696;BME280;10507;52.754;13.040;2023-02-19T12:43:51;99701.06;;;6.55;78.41
20696;BME280;10507;52.754;13.040;2023-02-19T12:46:24;99698.19;;;6.77;76.56
20696;BME280;10507;52.754;13.040;2023-02-19T12:48:59;99698.09;;;6.97;76.13
20696;BME280;10507;52.754;13.040;2023-02-19T12:51:32;99652.75;;;7.02;75.59
20696;BME280;10507;52.754;13.040;2023-02-19T12:54:05;99669.34;;;7.05;75.49
20696;BME280;10507;52.754;13.040;2023-02-19T12:56:41;99550.72;;;6.90;75.69
20696;BME280;10507;52.754;13.040;2023-02-19T12:59:13;99563.59;;;6.98;74.96
20696;BME280;10507;52.754;13.040;2023-02-19T13:01:47;99349.84;;;6.92;74.73
20696;BME280;10507;52.754;13.040;2023-02-19T13:04:24;99485.94;;;6.94;74.69
20696;BME280;10507;52.754;13.040;2023-02-19T13:06:56;99466.09;;;7.01;74.43
20696;BME280;10507;52.754;13.040;2023-02-19T13:09:29;99504.47;;;7.12;73.86
20696;BME280;10507;52.754;13.040;2023-02-19T13:12:03;99332.03;;;6.94;73.38
20696;BME280;10507;52.754;13.040;2023-02-19T13:14:36;99320.06;;;6.87;73.99